Date,TemperatureHighF,TemperatureAvgF,TemperatureLowF,DewpointHighF,DewpointAvgF,DewpointLowF,HumidityHigh,HumidityAvg,HumidityLow,PressureMaxIn,PressureMinIn,WindSpeedMaxMPH,WindSpeedAvgMPH,GustSpeedMaxMPH,PrecipitationSumIn
2013-1-1,39.8,36.2,28.0,31.6,28.4,17.4,85,73,63,30.06,29.88,6,2,13,0.00
2013-1-2,33.0,26.9,22.6,19.9,17.6,15.6,87,68,53,30.24,30.02,7,2,13,0.00
2013-1-3,32.7,25.6,19.7,21.8,18.4,16.4,90,75,54,30.24,30.12,6,1,13,0.00
2013-1-4,37.4,32.2,22.6,24.9,23.0,19.5,90,69,58,30.15,30.02,9,4,18,0.00
2013-1-5,41.1,31.8,25.8,25.9,23.1,20.6,90,71,51,30.36,30.08,12,-448,13,0.00
2013-1-6,46.5,35.2,28.8,34.3,29.3,25.1,95,80,50,30.26,30.02,3,-695,13,0.01
2013-1-7,45.4,34.0,23.8,32.8,27.4,22.1,93,78,49,30.43,30.10,7,1,13,0.00
2013-1-8,47.4,30.6,20.1,34.4,25.8,18.4,97,84,58,30.45,30.37,6,1,10,0.00
2013-1-9,48.1,34.5,24.1,39.4,30.9,22.6,96,87,70,30.42,30.19,4,1,7,0.00
2013-1-10,49.1,36.7,27.7,31.0,28.8,25.9,95,75,47,30.56,30.31,6,2,10,0.00
2013-1-11,44.3,37.7,29.1,42.4,34.6,26.6,97,89,76,30.55,30.10,4,0,6,0.75
2013-1-12,47.8,44.0,41.8,45.7,43.0,41.3,98,96,91,30.19,30.10,2,0,6,0.01
2013-1-13,47.7,45.1,42.2,47.4,44.7,41.7,99,99,98,30.17,30.01,2,0,6,0.01
2013-1-14,53.9,48.7,39.3,52.5,45.5,35.8,99,89,62,30.31,29.93,4,1,7,0.13
2013-1-15,39.3,36.7,33.8,37.3,32.0,29.5,95,83,73,30.37,30.22,3,0,6,0.18
2013-1-16,35.7,33.8,32.1,34.8,32.8,31.1,97,96,93,30.22,29.84,5,1,9,0.91
2013-1-17,41.6,37.7,34.8,35.4,31.9,28.9,96,80,63,30.13,29.96,6,2,12,0.00
2013-1-18,35.6,28.7,22.2,30.8,18.3,10.1,89,67,42,30.51,30.02,8,2,15,0.00
2013-1-19,50.8,36.9,22.1,31.7,26.7,16.9,89,68,45,30.44,29.96,7,2,10,0.00
2013-1-20,53.3,39.6,28.7,32.9,24.9,13.6,93,59,28,30.08,29.76,10,5,20,0.00
2013-1-21,31.6,27.2,20.8,22.8,15.6,11.8,81,62,48,30.13,29.89,7,2,7,0.00
2013-1-22,24.9,18.2,12.7,13.3,1.9,-2.8,61,49,37,30.28,29.90,10,7,20,0.00
2013-1-23,19.5,13.4,8.2,5.9,1.6,-2.1,86,60,44,30.32,30.21,7,3,12,0.00
2013-1-24,24.8,17.0,9.1,9.7,4.9,0.0,88,62,35,30.48,30.15,9,3,15,0.00
2013-1-25,22.1,15.8,4.5,15.5,5.7,0.6,89,65,46,30.49,30.11,5,2,7,0.00
2013-1-26,27.6,16.2,2.9,13.9,8.9,-0.2,93,74,51,30.44,30.10,7,2,12,0.01
2013-1-27,34.3,18.4,4.8,19.7,12.0,2.1,93,78,49,30.59,30.44,6,1,11,0.00
2013-1-28,34.5,28.8,16.3,33.7,27.0,14.1,97,93,87,30.54,30.04,4,1,7,0.20
2013-1-29,48.6,40.7,32.6,45.7,39.2,31.6,100,95,86,30.17,30.04,2,0,6,0.07
2013-1-30,66.2,51.4,39.8,59.8,49.8,39.3,100,95,79,30.07,29.35,7,1,13,0.40
2013-1-31,61.1,42.5,28.1,59.1,31.4,13.2,98,66,43,29.86,29.09,14,8,21,1.01
2013-2-1,29.9,26.7,21.2,19.9,11.7,6.4,77,53,38,30.31,29.84,10,5,17,0.00
2013-2-2,27.4,22.5,16.1,22.0,11.5,7.0,92,63,43,30.34,30.06,8,3,12,0.00
2013-2-3,30.2,25.0,20.2,24.9,21.4,18.3,95,86,70,30.06,29.84,5,1,9,0.02
2013-2-4,29.9,24.6,20.2,21.7,14.1,10.9,88,65,47,30.05,29.88,10,4,21,0.00
2013-2-5,31.7,28.9,24.9,29.0,26.0,21.8,94,89,84,29.99,29.91,3,0,6,0.00
2013-2-6,39.1,29.6,20.9,29.1,23.6,19.3,96,80,53,30.38,29.95,8,2,14,0.04
2013-2-7,33.7,27.0,18.9,22.7,18.8,15.9,91,73,51,30.51,30.31,5,1,7,0.00
2013-2-8,34.5,32.5,30.0,32.9,29.9,22.7,96,90,75,30.31,29.71,5,2,14,0.25
2013-2-9,32.8,27.3,18.9,31.0,18.7,10.5,97,72,48,30.41,29.80,10,5,23,0.01
2013-2-10,38.2,24.4,10.7,24.9,15.5,7.8,91,71,40,30.52,30.33,3,1,7,0.06
2013-2-11,46.0,35.5,29.6,45.7,33.8,23.7,99,94,78,30.34,29.69,5,0,5,0.24
2013-2-12,44.7,38.2,27.0,35.4,27.6,23.9,98,67,50,30.01,29.79,10,4,20,0.02
2013-2-13,42.4,32.1,21.7,31.5,26.7,20.2,96,82,58,30.00,29.71,3,0,6,0.00
2013-2-14,45.0,34.0,26.6,33.3,29.8,25.1,98,86,55,30.04,29.75,5,1,7,0.20
2013-2-15,55.0,38.0,24.2,36.3,30.5,23.0,97,77,45,30.04,29.94,6,2,11,0.04
2013-2-16,36.8,33.5,29.3,33.2,27.0,14.3,100,78,53,30.01,29.80,5,2,10,0.05
2013-2-17,31.0,26.6,19.8,14.5,8.8,2.2,54,47,40,30.09,29.76,11,7,25,0.00
2013-2-18,35.5,24.9,18.2,20.4,10.8,4.0,82,56,38,30.34,30.10,9,4,26,0.00
2013-2-19,43.8,33.2,20.7,41.5,29.5,17.9,96,87,56,30.22,29.73,8,2,11,0.32
2013-2-20,34.8,28.8,24.4,27.9,15.8,11.4,76,58,48,30.07,29.80,11,7,21,0.00
2013-2-21,35.3,28.2,23.6,18.4,15.5,12.3,69,59,48,30.34,30.05,10,6,18,0.00
2013-2-22,37.0,30.0,22.1,29.5,22.4,15.0,86,73,61,30.43,30.27,5,1,8,0.00
2013-2-23,43.7,37.5,32.4,43.2,36.5,29.5,98,96,86,30.28,29.83,4,0,8,0.19
2013-2-24,44.6,36.9,28.1,39.2,31.1,22.4,98,80,60,30.05,29.80,9,3,15,0.01
2013-2-25,44.5,33.2,23.4,30.0,25.8,21.3,94,76,53,30.26,30.05,5,1,7,0.00
2013-2-26,44.4,34.1,23.0,35.6,29.6,21.5,96,85,64,30.28,29.83,9,3,14,0.45
2013-2-27,51.0,42.3,36.7,45.6,39.8,35.6,98,91,72,29.83,29.53,9,3,17,0.32
2013-2-28,45.3,39.6,33.2,37.3,33.4,27.3,97,80,51,29.68,29.59,6,2,11,0.00
2013-3-1,43.1,36.6,27.8,32.0,28.8,26.3,96,75,55,29.84,29.66,6,3,15,0.00
2013-3-2,39.3,34.4,30.2,26.5,24.1,20.6,73,66,58,29.84,29.75,8,4,11,0.00
2013-3-3,36.2,31.2,26.1,21.7,20.0,18.0,73,63,52,29.83,29.74,8,4,15,0.00
2013-3-4,40.3,33.3,28.7,23.8,20.4,16.6,71,59,47,29.98,29.83,10,6,20,0.00
2013-3-5,46.4,36.2,29.8,29.0,25.9,22.9,88,67,48,30.06,29.96,6,2,11,0.00
2013-3-6,39.8,36.6,29.8,36.5,32.8,26.7,92,86,74,29.97,29.80,8,4,16,0.14
2013-3-7,45.5,38.9,34.4,33.3,29.4,26.4,86,69,53,30.12,29.96,7,3,13,0.00
2013-3-8,42.5,34.9,29.6,33.4,29.6,26.1,94,82,65,30.25,30.07,7,4,12,0.25
2013-3-9,59.0,40.6,28.5,30.9,25.7,20.1,86,59,22,30.34,30.22,5,2,10,0.02
2013-3-10,54.9,39.4,24.9,37.3,30.6,22.4,94,73,42,30.39,30.28,5,2,10,0.01
2013-3-11,58.9,45.5,34.3,48.4,40.7,31.7,97,85,49,30.33,30.07,5,2,11,0.00
2013-3-12,56.4,50.9,40.3,55.3,48.5,35.6,97,91,79,30.09,29.69,7,3,12,1.28
2013-3-13,48.2,39.4,29.3,35.6,30.1,24.4,95,71,45,29.96,29.84,10,4,15,0.00
2013-3-14,40.6,34.4,28.8,24.7,17.9,12.6,78,52,35,30.02,29.93,10,6,16,0.00
2013-3-15,50.0,38.7,26.3,33.0,22.6,13.3,66,53,43,30.04,29.75,10,4,20,0.00
2013-3-16,45.3,35.8,32.1,33.4,29.7,24.3,96,80,59,29.95,29.78,5,1,8,0.02
2013-3-17,37.7,32.0,25.0,31.2,24.4,20.3,96,75,51,30.32,29.94,4,1,8,0.31
2013-3-18,38.4,30.9,24.6,33.3,24.9,15.7,96,79,57,30.40,29.94,7,3,13,0.23
2013-3-19,49.7,39.2,33.9,38.9,32.5,20.3,97,80,44,29.94,29.72,9,3,18,0.68
2013-3-20,45.4,36.7,26.7,28.9,21.9,18.6,85,57,35,29.94,29.80,10,4,17,0.00
2013-3-21,38.0,32.7,28.1,28.8,20.6,12.7,91,63,39,29.86,29.68,7,3,16,0.02
2013-3-22,40.7,33.0,26.5,24.9,20.2,13.9,75,60,45,29.95,29.80,9,5,18,0.00
2013-3-23,46.7,37.2,29.9,24.3,21.6,20.1,70,54,38,29.99,29.89,9,4,16,0.00
2013-3-24,46.4,36.9,24.2,28.8,23.2,20.2,87,60,37,30.00,29.71,6,1,13,0.00
2013-3-25,37.0,35.2,32.8,34.3,31.7,27.3,96,87,71,29.72,29.50,5,1,9,0.39
2013-3-26,50.9,40.7,33.0,35.6,32.5,27.4,97,75,41,29.93,29.65,6,2,13,0.01
2013-3-27,50.4,39.3,26.6,33.4,29.3,25.1,97,70,41,30.05,29.93,9,3,14,0.00
2013-3-28,47.7,40.0,27.2,34.1,29.6,25.2,94,68,49,30.17,30.02,7,3,11,0.00
2013-3-29,52.4,43.1,27.7,33.2,29.8,24.9,93,61,42,30.20,30.11,6,2,14,0.00
2013-3-30,56.6,41.7,26.8,33.7,28.4,24.7,96,65,30,30.22,30.10,6,1,12,0.00
2013-3-31,56.4,42.1,28.4,46.2,35.7,26.1,97,81,42,30.15,29.73,7,2,13,0.21
2013-4-1,61.4,47.7,36.4,46.1,37.0,16.0,98,70,40,29.96,29.67,10,4,15,0.00
2013-4-2,43.6,36.0,26.5,23.1,17.1,13.7,83,48,30,30.14,29.96,11,4,18,0.00
2013-4-3,45.9,36.2,24.5,21.7,17.4,11.9,85,49,30,30.34,30.13,9,4,19,0.00
2013-4-4,51.3,38.3,23.9,30.1,21.4,13.7,81,53,32,30.43,30.11,5,1,10,0.00
2013-4-5,62.5,48.4,38.7,33.8,28.3,21.8,81,50,23,30.11,29.76,8,2,15,0.00
2013-4-6,51.0,41.6,32.6,30.5,21.9,17.0,76,48,27,30.33,30.04,6,2,9,0.00
2013-4-7,62.3,48.4,32.6,44.3,36.5,29.3,89,66,45,30.32,30.01,7,2,14,0.00
2013-4-8,75.1,59.3,39.3,51.7,45.9,37.5,96,65,38,30.10,29.98,4,1,9,0.00
2013-4-9,81.4,67.2,51.7,54.9,51.2,44.6,92,61,29,30.01,29.90,9,2,15,0.00
2013-4-10,85.5,68.6,56.5,60.3,56.3,52.0,97,68,39,29.95,29.79,7,2,13,1.13
2013-4-11,62.3,57.3,47.9,60.1,54.1,43.9,99,89,73,29.99,29.79,8,2,20,0.00
2013-4-12,47.9,43.9,41.9,44.8,42.3,40.8,97,94,85,29.97,29.71,9,4,13,0.82
2013-4-13,57.4,47.9,36.1,43.4,39.1,35.2,98,75,46,30.00,29.77,7,2,13,0.00
2013-4-14,59.6,49.6,36.1,43.7,36.9,28.8,97,65,37,30.20,30.00,8,2,11,0.00
2013-4-15,60.1,51.0,44.0,44.5,38.3,32.4,76,62,49,30.37,30.20,6,2,11,0.00
2013-4-16,70.6,58.6,43.7,57.7,50.3,41.2,93,75,60,30.37,30.13,8,2,10,0.00
2013-4-17,69.7,60.5,50.6,56.5,47.5,37.6,95,66,32,30.29,30.11,4,1,7,0.00
2013-4-18,60.1,54.1,47.0,54.7,49.6,43.1,95,85,74,30.32,30.08,6,2,8,0.01
2013-4-19,76.8,64.9,54.4,66.8,60.8,52.7,97,87,66,30.08,29.63,8,2,16,0.97
2013-4-20,56.2,50.0,44.4,52.0,35.8,26.2,95,61,37,30.34,29.73,9,4,16,0.23
2013-4-21,52.4,43.7,32.6,34.6,27.0,22.1,78,53,35,30.63,30.34,4,1,8,0.00
2013-4-22,52.9,42.9,30.1,38.7,33.8,28.1,95,72,47,30.64,30.48,8,3,13,0.00
2013-4-23,49.8,44.7,38.7,43.5,38.6,34.0,93,79,71,30.48,30.15,4,1,11,0.00
2013-4-24,70.4,54.2,34.8,55.9,47.0,33.5,98,78,58,30.16,29.82,5,2,10,0.00
2013-4-25,63.0,52.4,40.6,57.1,35.2,27.8,83,54,28,30.29,29.89,8,3,16,0.00
2013-4-26,62.3,49.2,35.1,40.4,35.0,29.4,94,63,29,30.44,30.29,4,1,9,0.00
2013-4-27,67.1,51.6,33.2,44.5,36.3,31.4,96,62,29,30.46,30.30,4,0,6,0.00
2013-4-28,69.9,54.9,37.8,45.7,39.1,29.6,95,60,33,30.33,30.20,5,1,9,0.00
2013-4-29,54.7,52.5,49.7,53.9,50.7,44.0,100,94,71,30.24,30.15,4,1,9,0.60
2013-4-30,68.6,56.4,43.4,53.1,45.9,34.8,100,71,35,30.34,30.19,5,2,11,0.03
2013-5-1,68.2,52.3,35.7,45.8,38.7,33.0,97,65,28,30.49,30.34,6,1,14,0.00
2013-5-2,70.3,54.7,36.5,49.5,42.7,35.2,98,69,36,30.48,30.34,4,1,8,0.00
2013-5-3,64.0,53.3,43.3,43.7,41.1,36.2,94,67,38,30.45,30.35,7,2,11,0.00
2013-5-4,68.7,52.9,37.0,47.8,41.9,35.6,98,70,39,30.39,30.22,5,1,10,0.00
2013-5-5,63.9,50.9,38.2,45.4,41.4,36.2,95,72,45,30.30,30.21,6,1,11,0.00
2013-5-6,67.2,53.9,40.8,55.0,48.5,38.9,95,83,62,30.26,30.14,5,1,12,0.00
2013-5-7,72.3,59.6,50.7,62.1,55.8,49.3,97,88,67,30.17,30.07,5,1,9,0.10
2013-5-8,67.1,60.6,56.8,62.8,59.1,55.6,98,95,78,30.07,29.93,3,1,8,0.64
2013-5-9,68.8,59.5,54.1,59.3,55.9,52.7,98,89,64,29.99,29.92,2,0,6,0.33
2013-5-10,80.6,65.4,49.2,62.1,56.0,48.2,99,76,40,30.02,29.91,5,0,9,0.31
2013-5-11,72.2,63.9,59.1,66.7,61.9,58.0,98,93,76,29.94,29.72,5,1,7,0.68
2013-5-12,63.2,57.5,43.4,58.2,42.8,27.5,97,63,32,30.00,29.71,7,2,12,0.01
2013-5-13,53.6,45.3,34.9,38.2,32.2,25.8,96,64,36,30.15,30.00,6,2,8,0.00
2013-5-14,59.5,46.3,31.3,37.7,31.9,27.5,100,63,31,30.19,30.06,4,1,9,0.00
2013-5-15,71.7,57.7,42.0,59.7,50.0,37.9,94,76,57,30.10,29.72,3,1,10,0.00
2013-5-16,78.7,64.0,52.9,65.5,59.1,51.8,98,85,59,29.87,29.74,4,0,6,0.08
2013-5-17,71.6,59.9,47.4,54.9,47.1,41.9,95,67,35,30.21,29.87,3,1,8,0.00
2013-5-18,65.8,57.4,48.9,55.3,52.0,46.0,94,83,61,30.30,30.21,3,1,6,0.02
2013-5-19,60.4,58.0,55.4,59.5,57.2,54.6,98,97,95,30.29,30.17,2,1,8,0.21
2013-5-20,76.7,65.3,56.7,69.3,62.6,56.1,99,92,74,30.19,29.99,1,0,4,0.01
2013-5-21,83.5,71.4,58.2,72.0,66.1,57.4,99,85,65,30.00,29.86,3,1,8,0.00
2013-5-22,84.9,73.2,62.8,73.6,68.2,61.8,99,86,60,29.93,29.83,3,0,7,0.00
2013-5-23,78.7,71.5,64.4,70.7,68.1,62.0,97,89,69,29.90,29.76,3,1,9,0.91
2013-5-24,64.4,54.1,45.3,62.4,51.2,39.4,98,90,73,30.04,29.72,5,2,10,0.27
2013-5-25,59.2,52.2,45.0,41.8,38.7,34.2,88,62,42,30.08,29.99,8,3,19,0.01
2013-5-26,67.8,56.0,45.2,42.4,38.8,35.6,85,55,31,30.24,30.05,6,2,16,0.00
2013-5-27,70.8,56.2,38.0,48.4,42.0,36.5,97,64,33,30.29,30.17,3,1,7,0.00
2013-5-28,61.7,55.6,47.2,61.7,54.0,45.6,100,95,86,30.24,30.13,2,0,2,0.42
2013-5-29,86.3,70.3,57.6,71.9,63.5,57.0,99,82,49,30.14,30.03,3,0,9,0.01
2013-5-30,89.9,75.8,61.3,70.7,65.6,60.2,99,74,42,30.16,30.08,2,0,7,0.00
2013-5-31,91.1,76.3,62.9,72.2,65.2,56.9,98,73,34,30.15,30.02,3,0,12,0.00
2013-6-1,88.9,77.1,63.8,71.8,67.5,62.6,98,74,50,30.04,29.91,3,1,7,0.00
2013-6-2,85.9,78.3,71.6,71.9,69.1,65.4,92,74,59,29.93,29.81,3,1,9,0.01
2013-6-3,80.7,70.8,62.8,70.7,67.6,60.7,98,90,60,29.90,29.81,3,0,6,0.57
2013-6-4,73.0,63.4,53.6,60.4,49.1,42.5,93,62,35,30.14,29.90,3,1,8,0.00
2013-6-5,75.9,62.5,46.1,56.2,49.5,43.8,95,66,36,30.23,30.10,2,0,7,0.00
2013-6-6,72.7,61.6,51.2,62.7,56.1,49.5,97,84,48,30.15,29.99,4,1,6,0.25
2013-6-7,63.9,61.7,59.7,63.3,61.0,58.8,98,98,96,29.99,29.62,3,1,9,3.94
2013-6-8,74.4,66.0,58.3,66.2,61.8,57.4,98,87,70,30.09,29.62,3,1,7,0.01
2013-6-9,80.0,67.5,54.2,65.3,59.5,53.1,99,78,47,30.20,30.09,2,0,6,0.00
2013-6-10,70.8,66.7,63.5,70.3,65.8,62.1,99,97,93,30.16,29.80,3,0,6,2.16
2013-6-11,78.7,72.2,64.6,69.8,65.9,61.2,99,82,66,29.79,29.69,4,2,11,0.04
2013-6-12,80.1,70.4,62.9,63.2,60.3,56.8,91,72,47,29.86,29.78,4,1,9,0.00
2013-6-13,72.6,64.9,58.1,69.6,62.4,56.7,98,92,82,29.85,29.42,3,0,8,0.82
2013-6-14,72.8,60.7,53.2,62.1,55.5,51.6,96,84,60,29.94,29.54,3,1,7,0.11
2013-6-15,79.0,65.5,51.7,61.0,56.5,50.6,99,76,44,30.06,29.94,4,1,8,0.00
2013-6-16,80.1,67.7,55.5,66.5,60.8,53.8,97,81,49,30.03,29.83,5,1,13,0.00
2013-6-17,84.5,71.9,61.4,68.9,65.1,60.2,98,81,54,29.94,29.86,2,0,7,0.00
2013-6-18,77.8,67.6,62.2,71.6,65.9,61.0,98,95,78,29.93,29.82,1,0,4,0.36
2013-6-19,76.6,65.7,57.3,62.0,56.3,48.9,99,75,39,30.18,29.90,2,0,9,0.00
2013-6-20,79.6,65.9,51.5,62.5,56.6,50.2,98,74,49,30.29,30.18,2,0,6,0.00
2013-6-21,81.4,67.8,53.0,62.6,56.1,51.3,97,69,43,30.33,30.25,2,0,4,0.00
2013-6-22,82.7,69.9,54.1,69.2,62.0,52.7,97,78,53,30.28,30.13,2,0,4,0.00
2013-6-23,85.4,73.2,60.0,74.1,67.4,58.5,98,83,59,30.22,30.07,3,0,9,0.00
2013-6-24,90.9,76.0,67.1,74.6,68.8,63.8,98,80,50,30.10,30.00,2,0,6,0.00
2013-6-25,89.5,75.4,63.1,74.9,68.0,61.9,98,80,50,30.03,29.86,4,1,6,0.00
2013-6-26,86.1,74.7,67.5,75.8,68.9,64.2,97,83,57,29.89,29.80,4,0,5,0.18
2013-6-27,84.8,74.8,68.2,75.7,71.1,67.5,98,89,66,29.85,29.56,4,1,8,1.00
2013-6-28,83.0,74.4,68.3,73.2,69.7,66.2,98,86,64,29.59,29.49,3,0,8,0.00
2013-6-29,84.0,73.9,65.5,70.7,66.4,63.1,98,79,52,29.72,29.50,2,0,7,0.00
2013-6-30,81.5,72.0,66.1,75.3,70.0,64.3,98,94,80,29.91,29.72,4,0,6,1.02
2013-7-1,76.6,73.4,69.1,74.6,72.0,68.2,99,95,89,30.03,29.89,4,0,6,1.92
2013-7-2,82.7,76.5,73.1,74.7,72.4,69.9,95,88,73,30.19,30.03,3,0,5,0.00
2013-7-3,82.9,75.6,69.9,76.3,72.1,68.4,97,89,76,30.26,30.18,2,0,6,0.02
2013-7-4,86.8,79.0,72.2,76.2,73.3,69.7,98,84,68,30.27,30.18,3,1,8,0.00
2013-7-5,90.3,79.3,69.2,76.4,72.4,68.1,98,81,58,30.23,30.11,3,1,9,0.00
2013-7-6,91.2,79.9,71.1,76.3,73.3,69.6,98,82,57,30.17,30.05,3,0,8,0.00
2013-7-7,90.5,79.5,70.4,77.1,72.9,69.5,97,82,59,30.10,29.97,5,0,7,0.35
2013-7-8,84.7,73.9,67.9,73.9,69.2,66.5,98,86,62,30.09,30.01,3,0,7,0.00
2013-7-9,84.7,75.1,66.8,75.5,71.0,65.6,98,88,66,30.09,30.01,2,0,3,0.04
2013-7-10,84.7,77.8,71.0,75.7,73.1,70.0,98,86,68,30.03,29.83,3,1,8,0.00
2013-7-11,81.9,76.1,72.8,74.2,71.0,65.2,95,84,67,29.93,29.82,1,0,4,0.01
2013-7-12,75.2,71.1,68.3,70.1,66.3,62.6,98,85,75,30.06,29.93,3,1,8,1.49
2013-7-13,83.3,74.0,68.3,76.7,72.2,67.7,99,94,75,30.30,30.07,3,0,7,0.68
2013-7-14,87.1,77.0,70.0,77.0,73.1,69.4,99,88,65,30.37,30.27,2,0,6,0.01
2013-7-15,89.8,78.6,68.7,78.8,73.4,67.8,98,85,61,30.29,30.16,2,0,6,0.00
2013-7-16,91.1,80.3,71.8,74.8,72.1,69.2,96,78,50,30.23,30.15,2,0,5,0.00
2013-7-17,92.5,79.7,69.5,75.1,72.0,68.3,98,79,49,30.21,30.08,1,0,6,0.00
2013-7-18,93.0,81.8,72.2,79.1,75.1,71.0,97,82,56,30.10,29.98,1,0,6,0.00
2013-7-19,93.1,83.8,74.9,80.4,77.1,73.9,98,82,60,30.01,29.82,3,1,7,0.00
2013-7-20,90.2,80.6,73.3,76.8,73.2,69.6,91,79,61,29.86,29.76,4,1,11,0.00
2013-7-21,87.2,76.7,71.4,75.7,72.1,69.9,96,86,63,29.96,29.85,2,0,6,0.04
2013-7-22,83.8,74.8,70.0,77.0,72.3,68.8,98,92,76,29.96,29.80,4,0,8,0.95
2013-7-23,82.8,74.6,70.3,75.7,72.2,69.1,99,93,75,29.79,29.60,3,0,4,0.92
2013-7-24,76.6,71.5,64.5,69.2,65.4,55.0,98,82,63,29.95,29.66,2,0,6,0.00
2013-7-25,68.8,64.2,59.5,60.7,56.9,52.9,87,77,69,30.07,29.95,2,1,6,0.00
2013-7-26,80.2,69.6,59.7,63.9,60.3,58.2,95,75,50,30.07,30.03,2,0,5,0.00
2013-7-30,77.6,71.7,60.8,63.4,60.1,58.6,93,69,53,30.17,30.13,2,1,7,0.00
2013-7-31,80.8,68.5,56.2,67.8,62.1,55.1,98,82,51,30.19,30.05,2,0,5,0.00
2013-8-1,70.6,67.4,64.3,70.0,66.3,62.7,98,96,90,30.05,29.84,2,0,5,1.14
2013-8-2,81.0,71.1,62.7,69.0,65.5,62.0,99,84,54,29.95,29.83,3,0,7,0.00
2013-8-3,73.8,67.5,62.6,68.5,65.1,61.1,97,92,79,29.95,29.89,3,0,7,0.05
2013-8-4,76.3,67.3,58.3,61.9,59.4,55.7,98,78,50,30.02,29.88,3,1,10,0.00
2013-8-5,75.6,63.9,52.7,59.1,54.9,50.4,97,75,47,30.10,30.02,2,0,8,0.00
2013-8-6,77.2,64.8,53.0,66.1,59.0,51.9,98,83,54,30.13,30.06,3,0,5,0.00
2013-8-7,74.6,68.9,62.3,69.0,66.2,60.8,98,91,80,30.14,30.06,3,1,9,0.01
2013-8-8,83.7,73.8,67.9,76.6,71.3,67.0,99,92,74,30.08,29.99,5,0,7,0.86
2013-8-9,82.3,76.0,73.1,76.7,73.8,71.4,97,93,80,30.02,29.84,3,0,7,0.30
2013-8-10,79.2,72.4,64.9,72.5,67.4,63.9,99,85,63,30.07,29.90,2,0,8,0.00
2013-8-11,81.7,69.5,58.2,69.1,63.1,57.1,98,82,52,30.15,30.03,2,0,5,0.00
2013-8-12,80.2,71.7,66.8,69.5,67.5,65.3,98,87,65,30.05,29.94,2,0,5,0.00
2013-8-13,77.3,69.9,64.7,71.7,67.9,63.8,99,93,78,29.94,29.72,2,0,10,2.04
2013-8-14,71.2,64.2,55.0,67.4,55.3,50.5,96,74,55,30.09,29.79,5,1,14,0.00
2013-8-15,75.1,61.2,48.9,59.4,52.9,47.8,98,77,44,30.18,30.09,2,0,6,0.00
2013-8-16,79.0,63.1,50.1,61.4,55.3,48.9,98,79,42,30.23,30.16,1,0,4,0.00
2013-8-17,80.1,64.8,52.5,63.6,57.6,51.4,98,80,47,30.29,30.23,3,0,6,0.00
2013-8-18,73.7,65.8,60.2,65.4,61.8,58.7,97,88,63,30.27,30.16,1,0,2,0.00
2013-8-19,74.2,66.9,60.3,67.6,63.0,59.3,98,88,73,30.17,30.07,2,0,4,0.01
2013-8-20,84.9,70.8,60.6,70.5,65.5,59.7,98,85,56,30.16,30.09,1,0,2,0.00
2013-8-21,85.2,71.6,59.9,71.1,65.5,58.8,99,83,47,30.21,30.08,2,0,4,0.00
2013-8-22,79.3,72.4,68.8,74.1,70.8,67.9,98,95,79,30.09,29.91,3,0,6,0.36
2013-8-23,74.6,68.4,61.2,68.0,64.6,59.5,98,88,65,30.12,29.92,2,0,3,0.00
2013-8-24,77.9,65.6,55.3,60.8,56.4,51.4,95,74,42,30.37,30.12,2,0,8,0.00
2013-8-25,78.6,63.5,50.3,61.1,55.7,49.2,98,79,47,30.43,30.27,2,0,5,0.00
2013-8-26,81.8,69.7,58.3,69.3,63.3,56.6,95,81,60,30.28,29.96,3,1,9,0.04
2013-8-27,83.5,73.4,66.6,71.8,68.3,65.7,98,85,61,29.95,29.88,3,0,7,0.03
2013-8-28,72.3,69.4,65.1,71.7,68.7,64.2,99,97,95,29.92,29.84,1,0,2,1.20
2013-8-29,77.0,71.6,67.6,71.4,69.5,66.0,99,93,80,30.05,29.89,4,0,5,0.00
2013-8-30,79.1,71.9,65.9,73.8,68.9,64.7,97,90,78,30.05,29.89,2,0,7,0.00
2013-8-31,84.0,75.1,68.2,76.6,71.8,67.3,99,90,74,29.90,29.81,2,0,6,0.00
2013-9-1,85.0,75.1,69.7,76.4,71.8,68.5,98,90,68,29.87,29.78,4,0,7,0.02
2013-9-2,76.6,72.6,69.7,74.0,71.4,68.8,99,96,87,29.81,29.72,3,0,4,0.48
2013-9-3,78.9,71.1,64.1,69.6,64.9,58.2,99,82,56,29.93,29.73,3,1,9,0.00
2013-9-4,77.1,65.7,56.0,62.7,58.5,54.8,98,79,53,30.06,29.92,3,1,7,0.00
2013-9-5,73.9,63.7,55.7,64.4,55.7,48.4,98,78,43,30.17,29.98,2,0,8,0.00
2013-9-6,68.3,57.5,48.7,51.8,47.3,42.9,94,71,40,30.28,30.17,2,0,6,0.00
2013-9-7,75.3,58.6,44.3,58.0,51.0,43.2,98,79,45,30.17,29.94,2,0,4,0.00
2013-9-8,78.2,66.9,57.1,66.7,59.6,48.3,97,79,57,30.11,29.88,3,0,7,0.00
2013-9-9,73.4,61.5,46.9,63.6,54.7,45.1,96,79,59,30.25,30.11,3,0,7,0.00
2013-9-10,83.6,73.5,63.3,75.3,69.5,60.8,96,88,72,30.19,30.08,3,0,7,0.00
2013-9-11,90.8,77.4,68.2,78.6,72.7,67.3,99,87,62,30.15,30.00,2,0,5,0.00
2013-9-12,85.0,74.3,67.7,75.6,70.9,66.8,98,90,70,30.01,29.73,6,0,8,0.27
2013-9-13,73.3,65.9,56.6,67.6,60.4,51.2,98,84,59,29.91,29.67,4,1,9,0.05
2013-9-14,61.6,54.8,45.5,51.1,48.1,43.6,96,79,64,30.18,29.91,4,1,10,0.00
2013-9-15,69.6,55.1,42.2,56.1,48.7,41.1,98,81,53,30.26,30.12,2,0,7,0.00
2013-9-16,68.0,59.1,53.0,59.1,54.5,49.5,98,86,64,30.26,30.07,2,0,7,0.06
2013-9-17,61.4,52.1,43.2,49.1,43.7,40.5,94,75,48,30.46,30.27,3,0,6,0.00
2013-9-18,67.2,50.9,37.3,51.5,43.9,36.1,98,80,44,30.39,30.22,1,0,5,0.00
2013-9-19,71.6,55.1,41.0,56.8,49.1,39.9,98,82,49,30.23,30.10,2,0,6,0.00
2013-9-20,75.2,59.4,45.9,62.2,54.2,44.8,99,85,57,30.12,29.99,2,0,6,0.00
2013-9-21,76.6,63.1,50.1,66.1,57.2,49.0,99,84,50,30.03,29.70,4,1,12,1.05
2013-9-22,65.3,59.1,50.2,61.6,52.1,44.3,98,79,54,29.96,29.69,4,1,7,0.25
2013-9-23,63.6,53.2,43.2,48.2,44.7,41.1,95,74,54,30.09,29.96,3,1,9,0.00
2013-9-24,70.0,52.7,40.8,53.4,46.0,39.5,97,80,48,30.11,29.93,2,0,8,0.00
2013-9-25,67.9,53.0,40.6,54.2,47.1,39.5,98,83,49,30.00,29.91,2,0,4,0.00
2013-9-26,69.7,56.3,44.6,59.5,52.1,43.5,98,87,62,30.12,29.96,2,0,6,0.00
2013-9-27,67.0,58.5,51.2,56.1,53.5,49.5,97,85,60,30.29,30.12,2,0,5,0.00
2013-9-28,69.6,58.9,49.5,55.5,52.3,47.8,97,81,50,30.34,30.26,3,0,6,0.00
2013-9-29,69.9,55.5,44.6,57.4,50.8,43.5,99,86,59,30.26,30.10,3,0,6,0.00
2013-9-30,70.3,55.5,43.2,56.5,50.0,42.1,99,84,53,30.11,30.00,1,0,3,0.00
2013-10-1,77.4,59.6,46.9,63.2,54.4,45.8,98,85,57,30.06,29.95,2,0,6,0.00
2013-10-2,80.9,64.4,51.3,65.5,58.3,50.5,99,83,54,30.05,29.96,4,1,6,0.00
2013-10-3,77.9,64.5,52.4,66.4,59.2,51.4,99,84,55,30.15,30.05,2,0,3,0.00
2013-10-4,82.6,68.2,56.3,68.4,62.6,55.5,99,84,59,30.09,30.00,2,0,4,0.00
2013-10-5,81.7,69.8,60.7,69.6,65.2,59.8,99,87,61,30.10,30.02,2,0,6,0.00
2013-10-6,75.4,67.4,63.9,69.6,65.5,63.0,98,94,81,30.09,30.00,4,1,8,0.03
2013-10-7,76.6,63.9,53.1,72.0,62.7,50.5,99,96,78,30.03,29.77,6,1,10,0.57
2013-10-8,64.3,53.1,43.6,51.4,47.8,42.8,99,84,54,30.34,30.03,2,0,4,0.00
2013-10-9,60.4,53.2,46.8,51.2,47.7,43.2,96,82,67,30.40,30.28,4,1,9,0.00
2013-10-10,58.1,54.7,50.5,56.1,52.4,48.2,96,92,82,30.28,30.05,3,1,8,0.26
2013-10-11,62.0,59.4,56.4,61.4,58.1,54.7,98,95,89,30.09,30.00,3,1,8,1.24
2013-10-12,69.6,62.4,56.6,59.3,54.1,45.7,96,75,54,30.25,30.07,5,2,17,0.00
2013-10-13,65.0,58.7,47.5,55.4,51.6,45.9,94,78,57,30.39,30.25,6,2,15,0.00
2013-10-14,65.2,52.5,42.6,53.4,48.0,41.7,99,86,58,30.38,30.26,2,0,4,0.00
2013-10-15,69.4,53.1,41.4,56.4,47.0,40.4,99,82,50,30.29,30.13,3,0,7,0.00
2013-10-16,65.4,57.0,46.4,59.9,54.4,44.5,96,91,79,30.13,29.94,1,0,2,0.00
2013-10-17,71.2,63.3,56.1,63.0,60.5,55.0,98,91,73,29.94,29.72,5,0,6,0.05
2013-10-18,64.6,56.5,42.5,62.5,46.9,40.7,94,71,52,30.03,29.73,6,2,12,0.01
2013-10-19,62.4,50.1,38.0,54.6,45.1,36.8,100,85,56,30.03,29.80,3,0,7,0.03
2013-10-20,60.7,50.3,38.4,52.3,40.8,35.7,97,72,41,30.11,29.82,5,2,12,0.00
2013-10-21,64.8,46.8,33.6,46.8,38.7,32.6,98,78,40,30.18,30.00,5,0,10,0.00
2013-10-22,61.7,48.3,38.7,52.7,44.1,35.2,99,86,66,30.00,29.81,4,0,12,0.01
2013-10-23,54.9,45.0,38.4,43.3,37.9,34.7,97,77,56,29.85,29.65,4,0,10,0.00
2013-10-24,50.6,40.8,31.5,36.5,32.4,28.3,96,74,44,30.08,29.82,6,2,10,0.00
2013-10-25,52.6,40.4,30.1,36.8,32.4,27.9,94,75,46,30.28,30.08,5,1,12,0.00
2013-10-26,54.6,39.7,26.7,38.2,31.1,25.5,98,75,41,30.28,29.93,7,1,13,0.00
2013-10-27,55.9,45.2,33.1,38.5,34.4,30.5,93,68,44,30.17,29.91,4,1,14,0.00
2013-10-28,59.9,41.8,28.8,41.4,34.1,27.5,97,78,44,30.33,30.17,4,0,9,0.00
2013-10-29,57.4,42.8,32.5,41.6,36.6,31.0,97,81,51,30.43,30.33,2,0,9,0.00
2013-10-30,58.5,47.2,35.7,52.5,44.2,34.1,96,90,79,30.38,30.20,2,0,9,0.00
2013-10-31,66.8,58.0,47.4,60.8,55.0,46.3,98,90,75,30.24,29.80,3,1,9,0.09
2013-11-1,68.8,61.7,48.2,64.1,57.4,47.1,96,86,65,29.80,29.58,9,2,16,0.37
2013-11-2,66.1,53.1,43.4,52.3,46.5,40.9,99,81,50,29.83,29.65,4,0,9,0.00
2013-11-3,50.4,42.9,32.6,42.9,33.1,22.0,96,70,42,30.49,29.83,4,1,11,0.00
2013-11-4,44.8,34.7,27.2,28.6,22.6,17.3,88,64,34,30.68,30.49,4,1,11,0.00
2013-11-5,55.6,43.0,28.8,43.0,35.9,25.7,92,77,58,30.67,30.51,3,0,9,0.00
2013-11-6,64.3,51.4,40.8,50.6,45.9,38.9,96,83,59,30.51,30.08,4,1,11,0.00
2013-11-7,60.1,51.3,37.7,56.7,48.6,35.0,98,90,73,30.08,29.81,5,1,10,0.10
2013-11-8,48.2,40.4,30.7,36.7,30.7,27.9,91,69,48,30.28,30.00,7,2,13,0.00
2013-11-9,49.5,37.1,25.9,33.8,29.0,24.4,96,75,43,30.34,30.02,5,1,9,0.00
2013-11-10,57.5,43.7,29.5,39.7,31.4,28.2,97,66,38,30.13,29.90,8,3,14,0.00
2013-11-11,52.9,45.9,31.9,36.7,32.0,27.4,86,59,46,30.26,30.00,6,2,10,0.00
2013-11-12,50.2,36.0,22.8,39.2,25.2,17.3,87,65,48,30.36,29.97,6,2,10,0.01
2013-11-13,39.7,29.8,22.8,21.8,17.6,14.2,88,62,40,30.44,30.34,6,2,11,0.00
2013-11-14,52.9,34.9,22.4,26.7,21.2,14.9,90,63,22,30.33,30.22,7,2,14,0.00
2013-11-15,57.1,36.7,24.8,35.5,28.0,22.3,92,75,31,30.29,30.19,4,0,9,0.00
2013-11-16,57.5,46.4,34.0,46.8,42.5,30.8,97,87,64,30.36,30.27,4,0,9,0.04
2013-11-17,64.9,56.0,48.1,58.3,52.5,46.6,96,89,75,30.28,29.78,4,1,9,0.01
2013-11-18,64.3,57.4,45.2,61.0,42.2,27.6,96,60,30,29.86,29.64,8,4,14,0.26
2013-11-19,48.0,41.0,27.1,29.7,26.3,22.9,87,57,45,30.39,29.86,8,4,15,0.01
2013-11-20,44.3,32.2,23.4,24.7,20.8,12.3,89,66,27,30.63,30.38,5,1,10,0.00
2013-11-21,50.9,38.5,25.0,41.2,30.6,18.3,85,74,60,30.63,30.41,4,0,10,0.00
2013-11-22,56.3,49.5,44.3,50.0,46.2,40.9,96,89,77,30.41,29.97,6,1,10,0.03
2013-11-23,51.1,40.7,29.4,48.0,28.0,10.6,96,61,45,30.10,29.98,9,5,16,0.01
2013-11-24,29.2,24.8,19.9,12.4,5.3,2.0,71,43,33,30.46,30.10,11,6,23,0.00
2013-11-25,34.1,26.2,17.4,19.0,14.5,8.8,84,62,44,30.55,30.37,5,2,10,0.00
2013-11-26,42.1,34.3,30.7,41.6,28.5,18.6,98,80,57,30.37,29.70,4,1,10,0.96
2013-11-27,60.6,41.7,31.4,60.3,39.0,22.1,99,91,65,29.86,29.43,9,4,19,2.01
2013-11-28,35.8,30.2,26.7,24.1,18.9,14.9,83,64,44,30.50,29.86,9,4,15,0.00
2013-11-29,39.6,29.3,21.3,23.8,21.6,19.0,94,74,50,30.76,30.49,5,1,10,0.00
2013-11-30,37.4,28.1,17.5,28.7,22.4,15.1,91,80,66,30.76,30.40,4,1,10,0.00
2013-12-1,46.1,35.4,25.4,33.9,29.9,23.7,96,81,56,30.40,30.05,3,0,10,0.00
2013-12-2,49.1,38.5,32.1,37.8,33.2,29.9,94,82,59,30.05,29.90,1,0,10,0.00
2013-12-3,52.2,39.1,29.5,40.7,34.4,28.0,100,84,54,30.04,29.91,4,0,10,0.00
2013-12-4,50.4,40.6,29.1,43.8,36.9,27.7,97,87,72,30.14,30.03,2,0,10,0.00
2013-12-5,55.9,50.8,45.7,54.7,49.9,43.7,99,96,91,30.13,29.95,2,0,10,0.00
2013-12-6,60.2,46.2,36.1,59.9,45.1,35.0,100,96,90,30.18,29.89,5,1,11,1.08
2013-12-7,38.4,33.7,27.5,35.0,29.8,22.7,97,86,72,30.55,30.11,6,2,11,0.08
2013-12-8,29.3,27.0,23.7,27.7,22.6,18.8,96,84,69,30.62,30.36,2,0,10,0.00
2013-12-9,34.7,32.7,28.7,34.2,32.0,27.7,98,97,96,30.35,30.02,4,1,10,0.30
2013-12-10,32.6,29.0,17.4,31.8,28.0,16.0,98,96,92,30.20,29.95,3,0,10,0.02
2013-12-11,31.4,19.9,11.3,23.1,16.4,9.4,97,87,64,30.39,30.20,7,1,12,0.00
2013-12-12,26.7,18.5,10.7,20.1,12.2,7.9,96,78,49,30.41,30.21,7,2,10,0.00
2013-12-13,35.4,22.7,9.0,21.5,15.5,6.7,92,76,48,30.37,30.19,8,2,14,0.01
2013-12-14,29.8,26.3,23.2,29.1,23.7,21.0,97,90,81,30.46,29.73,4,2,10,0.00
2013-12-15,37.2,32.1,26.8,34.4,28.1,22.3,97,86,67,29.90,29.58,8,2,16,0.02
2013-12-16,30.0,24.2,14.8,23.6,13.8,10.4,88,65,46,30.26,29.89,9,3,14,0.00
2013-12-17,27.8,23.0,17.9,25.2,20.0,15.6,93,88,77,30.24,29.97,2,0,9,0.00
2013-12-18,36.0,24.1,12.5,24.6,19.2,10.6,96,83,58,30.23,29.98,8,2,13,0.04
2013-12-19,44.3,26.6,13.4,33.1,22.4,11.5,96,85,56,30.24,30.07,4,0,9,0.18
2013-12-20,50.5,35.4,26.6,35.6,30.9,25.4,96,85,53,30.13,30.00,3,0,9,0.00
2013-12-21,57.8,41.1,31.3,55.7,38.7,30.0,99,91,74,30.03,29.92,3,0,9,0.00
2013-12-22,66.3,61.7,54.8,62.9,58.7,52.9,98,90,83,29.98,29.83,7,2,13,0.07
2013-12-23,58.8,51.6,40.1,58.5,49.8,32.1,99,94,71,30.19,29.92,6,1,11,0.73
2013-12-24,40.0,33.2,26.0,32.4,23.4,14.9,86,67,56,30.42,30.15,9,4,16,0.00
2013-12-25,26.9,23.9,18.0,18.4,12.3,8.1,71,61,51,30.58,30.41,6,2,9,0.00
2013-12-26,37.7,26.4,18.2,30.1,22.2,15.8,93,84,70,30.44,30.21,6,1,10,0.01
2013-12-27,43.0,27.4,19.0,26.6,21.2,17.3,96,80,44,30.41,30.31,7,1,15,0.00
2013-12-28,56.2,35.0,19.7,31.7,25.6,18.0,96,73,36,30.33,30.12,8,2,13,0.00
2013-12-29,41.6,37.1,30.3,40.8,35.4,27.2,98,93,88,30.12,29.48,6,1,9,1.15
2013-12-30,43.3,34.6,23.5,40.2,28.8,15.5,98,80,61,30.20,29.76,8,2,10,0.00
2013-12-31,33.6,26.0,18.7,26.8,17.5,13.1,86,70,54,30.34,30.09,7,2,17,0.00
2014-1-1,35.0,27.7,19.1,24.5,20.0,13.3,84,73,61,30.44,30.23,3,0,9,0.00
2014-1-2,30.4,26.6,18.2,25.3,22.5,15.8,93,85,75,30.22,29.68,3,2,10,0.00